Time;durP1;ratioP1;P1;durP2;ratioP2;P2;SDS_P1;SDS_P2;PMS_P1;PMS_P2;Temp;Humidity;BMP_temperature;BMP_pressure;BME280_temperature;BME280_humidity;BME280_pressure;Samples;Min_cycle;Max_cycle;Signal;HPM_P1;HPM_P2
2022/01/28 00:01:07;;;;;;;5.15;2.35;;;;;;;;;;5053646;28;20188;-67
2022/01/28 00:03:36;;;;;;;3.92;2.50;;;;;;;;;;5053588;28;20223;-68
2022/01/28 00:06:03;;;;;;;9.68;2.20;;;;;;;;;;5053831;28;20250;-67
2022/01/28 00:08:31;;;;;;;3.20;1.70;;;;;;;;;;5053774;28;20285;-68
2022/01/28 00:10:58;;;;;;;10.00;2.45;;;;;;;;;;5054011;28;20279;-69
2022/01/28 00:13:30;;;;;;;4.45;1.77;;;;;;;;;;5054490;28;20224;-68
2022/01/28 00:38:09;;;;;;;6.50;2.33;;;;;;;;;;5053418;28;20188;-68
2022/01/28 00:55:57;;;;;;;8.55;3.10;;;;;;;;;;5050400;28;20290;-68
2022/01/28 00:58:24;;;;;;;6.60;2.00;;;;;;;;;;5053838;28;20190;-68
2022/01/28 01:00:52;;;;;;;5.68;2.13;;;;;;;;;;5052800;28;20200;-67
2022/01/28 01:03:19;;;;;;;10.38;2.22;;;;;;;;;;5052938;28;20211;-67
2022/01/28 01:05:46;;;;;;;7.28;2.30;;;;;;;;;;5053876;28;20200;-68
2022/01/28 01:08:13;;;;;;;7.18;2.25;;;;;;;;;;5057585;28;20203;-67
2022/01/28 01:10:40;;;;;;;6.68;2.15;;;;;;;;;;5056650;28;20197;-67
2022/01/28 01:13:09;;;;;;;4.95;1.95;;;;;;;;;;5056586;28;20225;-68
2022/01/28 01:15:40;;;;;;;8.30;2.10;;;;;;;;;;5056959;28;20203;-67
2022/01/28 01:18:14;;;;;;;10.48;2.78;;;;;;;;;;5056453;28;20709;-68
2022/01/28 01:21:03;;;;;;;9.50;3.10;;;;;;;;;;5056650;28;20186;-68
2022/01/28 01:23:33;;;;;;;7.07;3.47;;;;;;;;;;5056358;28;20277;-68
2022/01/28 01:26:08;;;;;;;11.90;3.30;;;;;;;;;;5057059;28;20190;-67
2022/01/28 01:28:38;;;;;;;4.47;2.00;;;;;;;;;;5056857;28;20220;-68
2022/01/28 01:31:07;;;;;;;10.60;3.10;;;;;;;;;;5056275;28;20188;-68
2022/01/28 01:33:39;;;;;;;3.60;2.20;;;;;;;;;;5056172;28;20646;-68
2022/01/28 01:36:07;;;;;;;8.73;2.58;;;;;;;;;;5056525;28;20185;-69
2022/01/28 01:38:37;;;;;;;8.75;2.78;;;;;;;;;;5056130;28;20229;-68
2022/01/28 01:41:09;;;;;;;5.18;1.83;;;;;;;;;;5056084;28;20182;-67
2022/01/28 01:43:52;;;;;;;5.97;2.20;;;;;;;;;;5056421;28;20190;-67
2022/01/28 01:46:27;;;;;;;6.55;2.15;;;;;;;;;;5055953;28;20274;-68
2022/01/28 01:54:25;;;;;;;9.02;2.55;;;;;;;;;;5055797;28;20710;-67
2022/01/28 01:56:52;;;;;;;17.08;2.45;;;;;;;;;;5055969;28;20217;-68
2022/01/28 01:59:20;;;;;;;9.88;2.60;;;;;;;;;;5056317;28;20232;-68
2022/01/28 02:01:48;;;;;;;12.85;2.90;;;;;;;;;;5055848;28;20280;-67
2022/01/28 02:04:15;;;;;;;8.00;2.10;;;;;;;;;;5055649;28;20690;-68
2022/01/28 02:06:42;;;;;;;7.75;2.30;;;;;;;;;;5055583;28;20245;-68
2022/01/28 02:09:09;;;;;;;9.63;3.15;;;;;;;;;;5055858;28;20208;-68
2022/01/28 02:11:37;;;;;;;11.27;3.50;;;;;;;;;;5055326;28;20201;-68
2022/01/28 02:14:04;;;;;;;17.13;3.28;;;;;;;;;;5055368;28;20274;-68
2022/01/28 02:16:33;;;;;;;5.25;2.30;;;;;;;;;;5056183;28;20235;-68
2022/01/28 02:19:00;;;;;;;9.98;2.63;;;;;;;;;;5055714;28;20328;-68
2022/01/28 02:21:29;;;;;;;10.93;2.88;;;;;;;;;;5055833;28;20240;-67
2022/01/28 02:24:01;;;;;;;7.97;2.60;;;;;;;;;;5055585;28;20647;-67
2022/01/28 02:26:29;;;;;;;11.50;2.58;;;;;;;;;;5055847;28;20191;-68
2022/01/28 02:28:58;;;;;;;17.30;2.80;;;;;;;;;;5055128;28;20224;-67
2022/01/28 02:31:27;;;;;;;21.30;2.97;;;;;;;;;;5055129;28;20659;-67
2022/01/28 02:33:55;;;;;;;8.80;2.60;;;;;;;;;;5055293;28;20225;-67
2022/01/28 02:36:24;;;;;;;5.55;2.17;;;;;;;;;;5055731;28;20259;-67
2022/01/28 02:38:53;;;;;;;14.63;3.05;;;;;;;;;;5055633;28;20197;-67
2022/01/28 02:41:22;;;;;;;17.08;2.78;;;;;;;;;;5055477;28;20555;-67
2022/01/28 02:44:03;;;;;;;12.45;2.60;;;;;;;;;;5055085;28;20255;-67
2022/01/28 02:46:32;;;;;;;16.30;5.10;;;;;;;;;;5055264;28;20206;-68
2022/01/28 02:49:05;;;;;;;12.52;2.75;;;;;;;;;;5055333;28;20656;-68
2022/01/28 02:51:32;;;;;;;8.23;2.45;;;;;;;;;;5055058;28;20189;-68
2022/01/28 02:54:11;;;;;;;15.63;2.58;;;;;;;;;;5055185;28;20558;-68
2022/01/28 02:56:46;;;;;;;7.35;3.40;;;;;;;;;;5055285;28;20193;-68
2022/01/28 02:59:13;;;;;;;8.73;2.53;;;;;;;;;;5055251;28;20191;-69
2022/01/28 03:01:41;;;;;;;12.82;2.55;;;;;;;;;;5055418;28;20272;-69
2022/01/28 03:04:10;;;;;;;9.32;2.65;;;;;;;;;;5055043;28;20628;-68
2022/01/28 03:06:37;;;;;;;10.07;2.85;;;;;;;;;;5055048;28;20601;-68
2022/01/28 03:09:14;;;;;;;7.03;3.20;;;;;;;;;;5054613;28;20236;-68
2022/01/28 03:11:49;;;;;;;17.10;3.97;;;;;;;;;;5054610;28;20188;-67
2022/01/28 03:14:21;;;;;;;9.68;3.90;;;;;;;;;;5054668;28;20705;-68
2022/01/28 03:17:09;;;;;;;15.60;3.53;;;;;;;;;;5054744;28;20207;-68
2022/01/28 03:19:46;;;;;;;11.25;3.58;;;;;;;;;;5054798;28;20198;-68
2022/01/28 03:22:13;;;;;;;9.23;2.38;;;;;;;;;;5055315;28;20554;-67
2022/01/28 03:24:42;;;;;;;17.02;3.10;;;;;;;;;;5054544;28;20233;-68
2022/01/28 03:27:18;;;;;;;8.57;4.00;;;;;;;;;;5054241;28;20214;-68
2022/01/28 03:29:45;;;;;;;17.65;3.03;;;;;;;;;;5054168;28;20189;-69
2022/01/28 03:32:12;;;;;;;15.60;2.85;;;;;;;;;;5054497;28;20231;-68
2022/01/28 03:34:39;;;;;;;16.55;3.92;;;;;;;;;;5054585;28;20671;-68
2022/01/28 03:37:08;;;;;;;14.30;3.88;;;;;;;;;;5054357;28;20205;-68
2022/01/28 03:39:36;;;;;;;10.13;2.85;;;;;;;;;;5054374;28;20208;-69
2022/01/28 03:42:06;;;;;;;12.90;3.35;;;;;;;;;;5053988;28;20198;-68
2022/01/28 03:44:35;;;;;;;9.20;2.78;;;;;;;;;;5054315;28;20198;-68
2022/01/28 03:47:02;;;;;;;5.85;1.80;;;;;;;;;;5053803;28;20241;-68
2022/01/28 03:49:29;;;;;;;10.88;2.75;;;;;;;;;;5053853;28;20243;-68
2022/01/28 03:51:56;;;;;;;9.40;2.25;;;;;;;;;;5053789;28;20247;-68
2022/01/28 03:54:24;;;;;;;11.05;3.00;;;;;;;;;;5054019;28;20325;-68
2022/01/28 03:56:51;;;;;;;7.57;2.92;;;;;;;;;;5054154;28;20276;-69
2022/01/28 03:59:19;;;;;;;11.18;3.10;;;;;;;;;;5053704;28;20194;-68
2022/01/28 04:01:48;;;;;;;14.52;3.22;;;;;;;;;;5053992;28;20198;-68
2022/01/28 04:12:38;;;;;;;10.70;3.15;;;;;;;;;;5053648;28;20207;-68
2022/01/28 04:15:21;;;;;;;11.95;3.50;;;;;;;;;;5053759;28;20566;-68
2022/01/28 04:17:48;;;;;;;11.43;2.70;;;;;;;;;;5054241;28;20281;-68
2022/01/28 04:20:15;;;;;;;7.88;2.78;;;;;;;;;;5053343;28;20649;-68
2022/01/28 04:22:43;;;;;;;10.95;3.55;;;;;;;;;;5053335;28;20292;-68
2022/01/28 04:25:10;;;;;;;15.23;2.85;;;;;;;;;;5053593;28;20287;-68
2022/01/28 04:27:37;;;;;;;12.23;2.88;;;;;;;;;;5053617;28;20595;-68
2022/01/28 04:30:05;;;;;;;12.80;2.80;;;;;;;;;;5053541;28;20202;-68
2022/01/28 04:32:34;;;;;;;7.43;2.30;;;;;;;;;;5053119;28;20675;-68
2022/01/28 04:35:02;;;;;;;11.10;4.03;;;;;;;;;;5053095;28;20212;-67
2022/01/28 04:37:35;;;;;;;13.77;3.38;;;;;;;;;;5053456;28;20201;-67
2022/01/28 04:40:10;;;;;;;18.73;4.13;;;;;;;;;;5053019;28;20192;-67
2022/01/28 04:42:56;;;;;;;14.13;4.30;;;;;;;;;;5054199;28;20597;-68
2022/01/28 04:45:30;;;;;;;14.95;3.45;;;;;;;;;;5053109;28;20243;-68
2022/01/28 04:48:09;;;;;;;11.10;3.58;;;;;;;;;;5053896;28;20574;-69
2022/01/28 04:50:46;;;;;;;11.25;4.50;;;;;;;;;;5053450;28;20229;-68
2022/01/28 04:53:27;;;;;;;13.82;2.90;;;;;;;;;;5053911;28;20543;-68
2022/01/28 04:56:09;;;;;;;6.07;2.70;;;;;;;;;;5053822;28;20261;-69
2022/01/28 04:58:49;;;;;;;14.70;2.97;;;;;;;;;;5053361;28;20203;-68
2022/01/28 05:01:37;;;;;;;3.05;1.90;;;;;;;;;;5053383;28;20271;-68
2022/01/28 05:04:34;;;;;;;11.30;3.72;;;;;;;;;;5053860;28;20266;-68
2022/01/28 05:07:26;;;;;;;6.55;2.67;;;;;;;;;;5052978;28;20665;-68
2022/01/28 05:13:09;;;;;;;12.95;2.95;;;;;;;;;;5052773;28;20184;-69
2022/01/28 05:26:55;;;;;;;11.77;2.10;;;;;;;;;;5052742;28;20217;-65
2022/01/28 05:29:22;;;;;;;13.85;3.78;;;;;;;;;;5053183;28;20241;-65
2022/01/28 05:31:49;;;;;;;16.13;3.05;;;;;;;;;;5053404;28;20205;-66
2022/01/28 05:34:17;;;;;;;20.02;3.72;;;;;;;;;;5052487;28;20240;-65
2022/01/28 05:36:46;;;;;;;9.38;4.18;;;;;;;;;;5052563;28;20284;-66
2022/01/28 05:39:13;;;;;;;7.63;2.10;;;;;;;;;;5053059;28;20221;-67
2022/01/28 05:41:40;;;;;;;12.48;3.75;;;;;;;;;;5052581;28;20231;-65
2022/01/28 05:44:08;;;;;;;17.42;3.25;;;;;;;;;;5052896;28;20290;-66
2022/01/28 05:46:35;;;;;;;12.43;3.72;;;;;;;;;;5052467;28;20240;-66
2022/01/28 05:49:02;;;;;;;6.43;2.25;;;;;;;;;;5052971;28;20210;-65
2022/01/28 05:51:29;;;;;;;17.23;3.40;;;;;;;;;;5053187;28;20294;-65
2022/01/28 05:53:58;;;;;;;14.52;3.60;;;;;;;;;;5055388;28;20227;-66
2022/01/28 05:56:26;;;;;;;4.70;2.17;;;;;;;;;;5036452;28;20241;-66
2022/01/28 05:58:53;;;;;;;15.88;3.08;;;;;;;;;;5036240;28;20224;-65
2022/01/28 06:01:20;;;;;;;10.43;3.63;;;;;;;;;;5035936;28;20202;-66
2022/01/28 06:03:48;;;;;;;12.77;3.35;;;;;;;;;;5036165;28;20293;-66
2022/01/28 06:06:19;;;;;;;17.88;4.00;;;;;;;;;;5036542;28;20193;-65
2022/01/28 06:08:46;;;;;;;17.90;4.13;;;;;;;;;;5036235;28;20276;-65
2022/01/28 06:11:15;;;;;;;20.00;3.78;;;;;;;;;;5036107;28;20291;-65
2022/01/28 06:13:42;;;;;;;10.48;3.45;;;;;;;;;;5036002;28;20227;-65
2022/01/28 06:16:10;;;;;;;12.50;4.22;;;;;;;;;;5036020;28;20207;-65
2022/01/28 06:18:38;;;;;;;10.35;2.90;;;;;;;;;;5035613;28;20287;-65
2022/01/28 06:21:05;;;;;;;15.45;3.88;;;;;;;;;;5035602;28;20531;-65
2022/01/28 06:23:33;;;;;;;18.23;3.65;;;;;;;;;;5034680;28;20289;-65
2022/01/28 06:26:00;;;;;;;8.27;2.53;;;;;;;;;;5035423;28;20200;-66
2022/01/28 06:28:29;;;;;;;8.48;2.75;;;;;;;;;;5035817;28;20567;-64
2022/01/28 06:30:56;;;;;;;19.63;5.07;;;;;;;;;;5035209;28;20289;-64
2022/01/28 06:33:23;;;;;;;20.33;4.25;;;;;;;;;;5035342;28;20727;-64
2022/01/28 06:35:50;;;;;;;15.98;3.90;;;;;;;;;;5035246;28;20262;-65
2022/01/28 06:38:18;;;;;;;8.75;2.40;;;;;;;;;;5036002;28;20200;-66
2022/01/28 06:40:45;;;;;;;17.23;3.65;;;;;;;;;;5035108;28;20201;-65
2022/01/28 06:43:14;;;;;;;10.60;2.80;;;;;;;;;;5035413;28;20241;-64
2022/01/28 06:45:43;;;;;;;6.70;2.65;;;;;;;;;;5035688;28;20207;-65
2022/01/28 06:48:11;;;;;;;20.33;3.50;;;;;;;;;;5034984;28;20208;-64
2022/01/28 06:50:38;;;;;;;16.38;3.05;;;;;;;;;;5035130;28;20198;-64
2022/01/28 06:53:07;;;;;;;20.52;5.43;;;;;;;;;;5035649;28;20626;-64
2022/01/28 06:55:35;;;;;;;8.88;3.78;;;;;;;;;;5034567;28;20243;-64
2022/01/28 06:58:02;;;;;;;6.85;2.72;;;;;;;;;;5034767;28;20208;-66
2022/01/28 07:00:35;;;;;;;22.88;3.13;;;;;;;;;;5034710;28;20901;-64
2022/01/28 07:03:04;;;;;;;13.30;3.55;;;;;;;;;;5034389;28;20191;-65
2022/01/28 07:05:31;;;;;;;8.45;2.33;;;;;;;;;;5034979;28;20205;-65
2022/01/28 07:07:59;;;;;;;14.98;4.38;;;;;;;;;;5034924;28;20197;-65
2022/01/28 07:10:26;;;;;;;9.82;2.65;;;;;;;;;;5035180;28;20307;-66
2022/01/28 07:12:54;;;;;;;14.23;4.40;;;;;;;;;;5034535;28;20660;-64
2022/01/28 07:15:24;;;;;;;12.20;3.92;;;;;;;;;;5034885;28;20301;-65
2022/01/28 07:17:51;;;;;;;19.88;2.95;;;;;;;;;;5034445;28;20228;-64
2022/01/28 07:20:20;;;;;;;18.45;3.60;;;;;;;;;;5034718;28;20258;-64
2022/01/28 07:22:48;;;;;;;15.10;3.22;;;;;;;;;;5034516;28;20307;-64
2022/01/28 07:25:15;;;;;;;19.17;3.80;;;;;;;;;;5034485;28;20621;-64
2022/01/28 07:27:43;;;;;;;15.60;3.60;;;;;;;;;;5034204;28;20205;-65
2022/01/28 07:30:11;;;;;;;8.23;2.45;;;;;;;;;;5034298;28;20634;-65
2022/01/28 07:32:38;;;;;;;7.85;3.20;;;;;;;;;;5034033;28;20199;-65
2022/01/28 07:35:06;;;;;;;18.50;4.55;;;;;;;;;;5034363;28;20217;-65
2022/01/28 07:37:35;;;;;;;23.95;4.95;;;;;;;;;;5034766;28;20198;-65
2022/01/28 07:40:03;;;;;;;14.85;3.40;;;;;;;;;;5034176;28;20198;-65
2022/01/28 07:42:33;;;;;;;6.38;2.50;;;;;;;;;;5033971;28;20237;-64
2022/01/28 07:45:01;;;;;;;18.40;3.28;;;;;;;;;;5035785;28;20207;-65
2022/01/28 07:47:28;;;;;;;7.55;2.75;;;;;;;;;;5033690;28;20228;-65
2022/01/28 07:49:55;;;;;;;12.02;2.92;;;;;;;;;;5034518;28;20263;-65
2022/01/28 07:52:23;;;;;;;13.63;3.70;;;;;;;;;;5033757;28;20195;-65
2022/01/28 07:54:51;;;;;;;10.48;2.90;;;;;;;;;;5033815;28;20287;-64
2022/01/28 07:57:19;;;;;;;12.63;3.22;;;;;;;;;;5033994;28;20203;-66
2022/01/28 07:59:46;;;;;;;19.98;2.92;;;;;;;;;;5033548;28;20228;-65
2022/01/28 08:02:14;;;;;;;11.70;2.97;;;;;;;;;;5033878;28;20262;-65
2022/01/28 08:04:41;;;;;;;14.20;3.30;;;;;;;;;;5033846;28;20205;-65
2022/01/28 08:07:09;;;;;;;15.85;4.15;;;;;;;;;;5033579;28;20230;-64
2022/01/28 08:09:36;;;;;;;9.70;3.97;;;;;;;;;;5033465;28;20199;-64
2022/01/28 08:12:05;;;;;;;6.38;2.60;;;;;;;;;;5033464;28;20226;-64
2022/01/28 08:14:32;;;;;;;7.93;2.53;;;;;;;;;;5033131;28;20260;-64
2022/01/28 08:17:00;;;;;;;8.95;3.15;;;;;;;;;;5033196;28;20197;-64
2022/01/28 08:19:27;;;;;;;12.48;3.80;;;;;;;;;;5033548;28;20243;-64
2022/01/28 08:21:54;;;;;;;9.43;2.65;;;;;;;;;;5033297;28;20241;-65
2022/01/28 08:24:22;;;;;;;7.32;3.55;;;;;;;;;;5033203;28;20665;-65
2022/01/28 08:26:50;;;;;;;11.63;3.92;;;;;;;;;;5033620;28;20288;-64
2022/01/28 08:29:18;;;;;;;19.67;4.80;;;;;;;;;;5034219;28;20280;-65
2022/01/28 08:31:46;;;;;;;11.25;3.72;;;;;;;;;;5033966;28;20285;-64
2022/01/28 08:34:13;;;;;;;9.05;3.17;;;;;;;;;;5033546;28;20251;-65
2022/01/28 08:36:40;;;;;;;7.32;2.80;;;;;;;;;;5033225;28;20751;-65
2022/01/28 08:39:09;;;;;;;15.63;3.25;;;;;;;;;;5033647;28;20224;-65
2022/01/28 08:41:39;;;;;;;15.20;3.83;;;;;;;;;;5033564;28;20316;-64
2022/01/28 08:44:06;;;;;;;9.18;2.72;;;;;;;;;;5033767;28;20554;-65
2022/01/28 08:46:35;;;;;;;9.90;4.25;;;;;;;;;;5034166;28;20601;-65
2022/01/28 08:49:03;;;;;;;7.30;2.80;;;;;;;;;;5033454;28;20219;-65
2022/01/28 08:51:30;;;;;;;16.13;3.78;;;;;;;;;;5033717;28;20193;-65
2022/01/28 08:53:58;;;;;;;6.53;2.72;;;;;;;;;;5033596;28;20225;-64
2022/01/28 08:56:25;;;;;;;9.25;2.92;;;;;;;;;;5033058;28;20228;-64
2022/01/28 08:58:52;;;;;;;19.55;3.85;;;;;;;;;;5033562;28;20191;-64
2022/01/28 09:01:19;;;;;;;15.30;3.97;;;;;;;;;;5034630;28;20293;-65
2022/01/28 09:03:49;;;;;;;17.05;3.50;;;;;;;;;;5034565;28;20213;-66
2022/01/28 09:06:17;;;;;;;15.18;4.07;;;;;;;;;;5034396;28;20523;-64
2022/01/28 09:08:44;;;;;;;21.33;4.07;;;;;;;;;;5033171;28;20212;-64
2022/01/28 09:11:46;;;;;;;13.95;3.28;;;;;;;;;;5033678;28;20202;-65
2022/01/28 09:14:13;;;;;;;17.40;3.17;;;;;;;;;;5033318;28;20182;-64
2022/01/28 09:16:40;;;;;;;9.05;3.17;;;;;;;;;;5033072;28;20256;-65
2022/01/28 09:19:09;;;;;;;16.85;3.35;;;;;;;;;;5033363;28;20192;-65
2022/01/28 09:21:36;;;;;;;13.65;3.42;;;;;;;;;;5033194;28;20288;-65
2022/01/28 09:24:04;;;;;;;18.02;3.50;;;;;;;;;;5033711;28;20280;-64
2022/01/28 09:26:31;;;;;;;18.05;5.32;;;;;;;;;;5033615;28;20208;-65
2022/01/28 09:28:58;;;;;;;13.13;5.22;;;;;;;;;;5037492;28;20612;-65
2022/01/28 09:31:26;;;;;;;11.40;3.42;;;;;;;;;;5037386;28;20249;-64
2022/01/28 09:33:53;;;;;;;10.30;3.63;;;;;;;;;;5037814;28;20288;-65
2022/01/28 09:36:21;;;;;;;13.40;4.13;;;;;;;;;;5038041;28;20312;-65
2022/01/28 09:38:49;;;;;;;11.40;4.25;;;;;;;;;;5037720;28;20751;-64
2022/01/28 09:41:16;;;;;;;19.58;7.13;;;;;;;;;;5037902;28;20201;-65
2022/01/28 09:43:45;;;;;;;22.23;3.70;;;;;;;;;;5038302;28;20224;-65
2022/01/28 09:46:13;;;;;;;10.95;3.53;;;;;;;;;;5037962;28;20653;-64
2022/01/28 09:48:40;;;;;;;11.80;3.50;;;;;;;;;;5038175;28;20250;-64
2022/01/28 09:51:08;;;;;;;16.38;3.80;;;;;;;;;;5038229;28;20237;-65
2022/01/28 09:53:36;;;;;;;12.98;3.75;;;;;;;;;;5038441;28;20220;-65
2022/01/28 09:56:04;;;;;;;15.52;4.05;;;;;;;;;;5038885;28;20232;-65
2022/01/28 09:58:31;;;;;;;14.05;4.10;;;;;;;;;;5037708;28;20303;-65
2022/01/28 10:00:58;;;;;;;20.77;4.15;;;;;;;;;;5037862;28;20205;-65
2022/01/28 10:03:27;;;;;;;12.93;3.95;;;;;;;;;;5037626;28;20198;-65
2022/01/28 10:05:54;;;;;;;18.13;4.13;;;;;;;;;;5037705;28;20735;-66
2022/01/28 10:08:22;;;;;;;20.83;3.80;;;;;;;;;;5037962;28;20285;-66
2022/01/28 10:10:53;;;;;;;17.35;3.85;;;;;;;;;;5037498;28;20198;-66
2022/01/28 10:13:26;;;;;;;10.27;4.43;;;;;;;;;;5036667;28;20191;-65
2022/01/28 10:15:54;;;;;;;13.75;3.00;;;;;;;;;;5037149;28;20252;-65
2022/01/28 10:18:22;;;;;;;9.55;3.42;;;;;;;;;;5036255;28;20212;-66
2022/01/28 10:20:49;;;;;;;12.82;3.92;;;;;;;;;;5036559;28;20285;-65
2022/01/28 10:23:18;;;;;;;14.23;3.17;;;;;;;;;;5035723;28;20204;-65
2022/01/28 10:26:02;;;;;;;9.18;3.40;;;;;;;;;;5035958;28;20205;-65
2022/01/28 10:28:29;;;;;;;24.55;5.05;;;;;;;;;;5035688;28;20642;-65
2022/01/28 10:30:56;;;;;;;15.60;3.85;;;;;;;;;;5035976;28;20204;-65
2022/01/28 10:33:24;;;;;;;16.50;3.65;;;;;;;;;;5036397;28;20225;-67
2022/01/28 10:35:53;;;;;;;9.55;3.50;;;;;;;;;;5036066;28;20233;-65
2022/01/28 10:38:31;;;;;;;17.77;4.38;;;;;;;;;;5034853;28;20226;-65
2022/01/28 10:41:10;;;;;;;19.40;4.22;;;;;;;;;;5036130;28;20201;-65
2022/01/28 10:43:42;;;;;;;17.60;3.15;;;;;;;;;;5035739;28;20658;-64
2022/01/28 10:46:10;;;;;;;18.80;4.95;;;;;;;;;;5035178;28;20277;-66
2022/01/28 10:48:49;;;;;;;19.50;4.38;;;;;;;;;;5035533;28;20276;-65
2022/01/28 10:51:17;;;;;;;19.00;4.10;;;;;;;;;;5035157;28;20276;-64
2022/01/28 10:53:44;;;;;;;14.05;3.78;;;;;;;;;;5035472;28;20291;-65
2022/01/28 10:56:13;;;;;;;14.23;4.10;;;;;;;;;;5035029;28;20663;-64
2022/01/28 10:58:41;;;;;;;11.98;3.80;;;;;;;;;;5035760;28;20252;-65
2022/01/28 11:01:13;;;;;;;17.60;4.10;;;;;;;;;;5035307;28;20193;-65
2022/01/28 11:03:40;;;;;;;18.35;4.53;;;;;;;;;;5035179;28;20221;-65
2022/01/28 11:06:08;;;;;;;23.02;5.57;;;;;;;;;;5034885;28;20683;-64
2022/01/28 11:08:35;;;;;;;27.77;5.40;;;;;;;;;;5034868;28;20327;-65
2022/01/28 11:11:03;;;;;;;18.23;4.47;;;;;;;;;;5034955;28;20291;-64
2022/01/28 11:13:31;;;;;;;12.25;3.88;;;;;;;;;;5034799;28;20628;-64
2022/01/28 11:15:59;;;;;;;17.52;5.05;;;;;;;;;;5034449;28;20320;-65
2022/01/28 11:18:27;;;;;;;12.65;3.63;;;;;;;;;;5035113;28;20204;-65
2022/01/28 11:20:56;;;;;;;15.27;4.15;;;;;;;;;;5035071;28;20230;-65
2022/01/28 11:23:27;;;;;;;12.25;3.55;;;;;;;;;;5034739;28;20288;-66
2022/01/28 11:26:08;;;;;;;10.27;3.20;;;;;;;;;;5034763;28;20190;-65
2022/01/28 11:28:41;;;;;;;18.98;4.05;;;;;;;;;;5035082;28;20268;-65
2022/01/28 11:31:08;;;;;;;12.70;3.25;;;;;;;;;;5034626;28;20547;-65
2022/01/28 11:33:43;;;;;;;13.25;3.17;;;;;;;;;;5034622;28;20651;-65
2022/01/28 11:36:10;;;;;;;8.25;3.47;;;;;;;;;;5035003;28;20209;-65
2022/01/28 11:38:47;;;;;;;19.42;4.80;;;;;;;;;;5034514;28;20198;-65
2022/01/28 11:41:15;;;;;;;16.27;5.38;;;;;;;;;;5034787;28;20183;-64
2022/01/28 11:43:49;;;;;;;14.80;4.43;;;;;;;;;;5034121;28;20239;-65
2022/01/28 11:46:24;;;;;;;11.55;2.95;;;;;;;;;;5034551;28;20229;-65
2022/01/28 11:49:15;;;;;;;7.43;2.80;;;;;;;;;;5034388;28;20201;-65
2022/01/28 11:51:43;;;;;;;17.92;4.05;;;;;;;;;;5033955;28;20277;-65
2022/01/28 11:54:11;;;;;;;11.05;3.22;;;;;;;;;;5034084;28;20238;-64
2022/01/28 11:56:39;;;;;;;11.75;3.97;;;;;;;;;;5035110;28;20210;-65
2022/01/28 11:59:09;;;;;;;20.88;7.72;;;;;;;;;;5034285;28;20253;-64
2022/01/28 12:01:55;;;;;;;15.82;3.80;;;;;;;;;;5034791;28;20234;-65
2022/01/28 12:04:38;;;;;;;15.05;4.20;;;;;;;;;;5034583;28;20300;-65
2022/01/28 12:07:06;;;;;;;19.83;4.57;;;;;;;;;;5035581;28;20257;-65
2022/01/28 12:09:34;;;;;;;19.63;4.70;;;;;;;;;;5037369;28;20234;-65
2022/01/28 12:12:02;;;;;;;15.52;3.88;;;;;;;;;;5035813;28;20280;-64
2022/01/28 12:14:48;;;;;;;8.50;4.65;;;;;;;;;;5034544;28;20193;-65
2022/01/28 12:17:35;;;;;;;14.88;3.92;;;;;;;;;;5035651;28;20690;-65
2022/01/28 12:20:16;;;;;;;18.08;5.57;;;;;;;;;;5035280;28;20571;-65
2022/01/28 12:23:01;;;;;;;13.52;4.20;;;;;;;;;;5036200;28;20186;-65
2022/01/28 12:25:48;;;;;;;12.25;3.85;;;;;;;;;;5037149;28;20232;-65
2022/01/28 12:28:18;;;;;;;14.32;6.25;;;;;;;;;;5039172;28;20694;-64
2022/01/28 12:30:46;;;;;;;13.73;3.72;;;;;;;;;;5038723;28;20231;-65
2022/01/28 12:33:14;;;;;;;14.77;4.00;;;;;;;;;;5037328;28;20210;-65
2022/01/28 12:35:43;;;;;;;12.63;4.25;;;;;;;;;;5036874;28;20217;-65
2022/01/28 12:38:13;;;;;;;16.17;3.53;;;;;;;;;;5036938;28;20202;-65
2022/01/28 12:40:47;;;;;;;16.08;4.35;;;;;;;;;;5040003;28;20198;-67
2022/01/28 12:43:18;;;;;;;6.95;2.63;;;;;;;;;;5038348;28;20196;-66
2022/01/28 12:45:48;;;;;;;14.20;4.03;;;;;;;;;;5036464;28;20200;-65
2022/01/28 12:48:21;;;;;;;10.98;3.30;;;;;;;;;;5036268;28;20210;-66
2022/01/28 12:50:52;;;;;;;13.00;3.40;;;;;;;;;;5037030;28;20229;-65
2022/01/28 12:53:29;;;;;;;23.02;4.10;;;;;;;;;;5037383;28;20191;-66
2022/01/28 12:55:57;;;;;;;20.55;4.40;;;;;;;;;;5034488;28;20234;-66
2022/01/28 12:58:35;;;;;;;9.93;3.05;;;;;;;;;;5035407;28;20241;-66
2022/01/28 13:01:09;;;;;;;15.25;4.20;;;;;;;;;;5037727;28;20249;-66
2022/01/28 13:03:45;;;;;;;20.00;4.30;;;;;;;;;;5037799;28;20233;-66
2022/01/28 13:06:38;;;;;;;12.85;2.90;;;;;;;;;;5037347;28;20198;-67
2022/01/28 13:09:11;;;;;;;14.52;4.22;;;;;;;;;;5037941;28;20190;-67
2022/01/28 13:11:42;;;;;;;9.77;3.40;;;;;;;;;;5038537;28;20188;-66
2022/01/28 13:14:10;;;;;;;13.00;3.35;;;;;;;;;;5037696;28;20186;-66
2022/01/28 13:16:39;;;;;;;16.90;3.95;;;;;;;;;;5037035;28;20226;-66
2022/01/28 13:19:07;;;;;;;16.15;4.07;;;;;;;;;;5037721;28;20201;-66
2022/01/28 13:21:36;;;;;;;11.50;3.42;;;;;;;;;;5037671;28;20655;-66
2022/01/28 13:24:08;;;;;;;7.53;2.67;;;;;;;;;;5040274;28;20281;-66
2022/01/28 13:26:35;;;;;;;12.00;2.90;;;;;;;;;;5056670;28;20227;-66
2022/01/28 13:29:09;;;;;;;14.82;3.75;;;;;;;;;;5056517;28;20202;-66
2022/01/28 13:31:37;;;;;;;17.80;4.18;;;;;;;;;;5056911;28;20292;-66
2022/01/28 13:34:06;;;;;;;17.67;3.65;;;;;;;;;;5057565;28;20202;-66
2022/01/28 13:36:48;;;;;;;13.13;3.38;;;;;;;;;;5056544;28;20218;-65
2022/01/28 13:39:20;;;;;;;10.23;3.53;;;;;;;;;;5057143;28;20259;-65
2022/01/28 13:41:50;;;;;;;14.80;4.25;;;;;;;;;;5057368;28;20201;-66
2022/01/28 13:44:25;;;;;;;17.67;3.38;;;;;;;;;;5056779;28;20546;-65
2022/01/28 13:46:56;;;;;;;25.42;3.70;;;;;;;;;;5056948;28;20592;-66
2022/01/28 13:49:28;;;;;;;15.70;3.78;;;;;;;;;;5056869;28;20201;-65
2022/01/28 13:52:06;;;;;;;10.13;2.92;;;;;;;;;;5056906;28;20244;-65
2022/01/28 13:54:34;;;;;;;16.35;4.00;;;;;;;;;;5056638;28;20230;-67
2022/01/28 13:57:01;;;;;;;20.30;3.97;;;;;;;;;;5056113;28;20216;-67
2022/01/28 13:59:31;;;;;;;9.75;3.90;;;;;;;;;;5056380;28;20240;-65
2022/01/28 14:01:59;;;;;;;14.50;3.85;;;;;;;;;;5056561;28;20236;-66
2022/01/28 14:04:32;;;;;;;15.45;3.58;;;;;;;;;;5056561;28;20255;-65
2022/01/28 14:07:20;;;;;;;22.55;5.97;;;;;;;;;;5056812;28;20217;-66
2022/01/28 14:09:56;;;;;;;7.65;3.42;;;;;;;;;;5056035;28;20196;-66
2022/01/28 14:12:25;;;;;;;20.50;4.30;;;;;;;;;;5055814;28;20202;-66
2022/01/28 14:14:59;;;;;;;14.77;4.28;;;;;;;;;;5056394;28;20579;-67
2022/01/28 14:17:26;;;;;;;13.43;3.70;;;;;;;;;;5057495;28;20260;-65
2022/01/28 14:19:53;;;;;;;15.05;3.45;;;;;;;;;;5056012;28;20193;-65
2022/01/28 14:22:22;;;;;;;15.82;4.40;;;;;;;;;;5056487;28;20226;-66
2022/01/28 14:24:49;;;;;;;15.65;3.75;;;;;;;;;;5055794;28;20255;-66
2022/01/28 14:27:46;;;;;;;6.82;3.22;;;;;;;;;;5055731;28;20265;-66
2022/01/28 14:30:21;;;;;;;17.40;4.50;;;;;;;;;;5055568;28;20206;-68
2022/01/28 14:32:49;;;;;;;16.48;3.53;;;;;;;;;;5055933;28;20257;-64
2022/01/28 14:35:17;;;;;;;15.45;3.63;;;;;;;;;;5055712;28;20201;-67
2022/01/28 14:37:46;;;;;;;8.85;3.25;;;;;;;;;;5055833;28;20221;-68
2022/01/28 14:40:15;;;;;;;15.73;3.95;;;;;;;;;;5055612;28;20201;-65
2022/01/28 14:42:43;;;;;;;11.00;3.50;;;;;;;;;;5055282;28;20674;-65
2022/01/28 14:45:11;;;;;;;14.85;3.58;;;;;;;;;;5055607;28;20288;-65
2022/01/28 14:47:38;;;;;;;8.93;3.17;;;;;;;;;;5055491;28;20198;-65
2022/01/28 14:50:06;;;;;;;12.15;3.38;;;;;;;;;;5055028;28;20287;-64
2022/01/28 14:52:33;;;;;;;10.13;3.88;;;;;;;;;;5055281;28;20284;-71
2022/01/28 14:55:03;;;;;;;7.72;2.97;;;;;;;;;;5054467;28;20241;-66
2022/01/28 14:57:30;;;;;;;14.80;4.50;;;;;;;;;;5054869;28;20236;-67
2022/01/28 14:59:58;;;;;;;10.00;3.40;;;;;;;;;;5055142;28;20291;-67
2022/01/28 15:02:27;;;;;;;17.83;3.60;;;;;;;;;;5054849;28;20248;-64
2022/01/28 15:04:55;;;;;;;10.77;3.15;;;;;;;;;;5054957;28;20197;-63
2022/01/28 15:07:25;;;;;;;20.20;3.88;;;;;;;;;;5055010;28;20205;-62
2022/01/28 15:09:54;;;;;;;9.13;3.00;;;;;;;;;;5054845;28;20559;-62
2022/01/28 15:12:23;;;;;;;8.00;3.22;;;;;;;;;;5054848;28;20288;-66
2022/01/28 15:14:50;;;;;;;12.85;3.83;;;;;;;;;;5054781;28;20199;-65
2022/01/28 15:17:18;;;;;;;21.63;3.83;;;;;;;;;;5054996;28;20217;-70
2022/01/28 15:19:45;;;;;;;8.90;3.15;;;;;;;;;;5054643;28;20199;-66
2022/01/28 15:22:13;;;;;;;10.10;3.28;;;;;;;;;;5054666;28;20215;-65
2022/01/28 15:24:40;;;;;;;14.73;3.80;;;;;;;;;;5053496;28;20200;-66
2022/01/28 15:27:09;;;;;;;9.95;3.78;;;;;;;;;;5054050;28;20253;-65
2022/01/28 15:29:58;;;;;;;13.07;4.05;;;;;;;;;;5054441;28;20198;-66
2022/01/28 15:38:10;;;;;;;21.33;4.00;;;;;;;;;;5054100;28;20217;-70
2022/01/28 15:40:37;;;;;;;14.52;4.22;;;;;;;;;;5054518;28;20201;-66
2022/01/28 15:43:04;;;;;;;13.40;4.10;;;;;;;;;;5053684;28;20716;-66
2022/01/28 15:45:34;;;;;;;18.80;4.03;;;;;;;;;;5053628;28;20284;-66
2022/01/28 15:48:09;;;;;;;12.85;3.70;;;;;;;;;;5054262;28;20206;-66
2022/01/28 15:50:37;;;;;;;22.60;4.38;;;;;;;;;;5053696;28;20197;-66
2022/01/28 15:53:04;;;;;;;15.32;3.65;;;;;;;;;;5053631;28;20208;-66
2022/01/28 15:55:31;;;;;;;10.43;3.20;;;;;;;;;;5053830;28;20224;-66
2022/01/28 15:57:58;;;;;;;17.25;3.88;;;;;;;;;;5053945;28;20228;-66
2022/01/28 16:00:25;;;;;;;12.32;4.05;;;;;;;;;;5053606;28;20740;-66
2022/01/28 16:02:54;;;;;;;15.15;3.72;;;;;;;;;;5053898;28;20559;-66